Time;durP1;ratioP1;P1;durP2;ratioP2;P2;SDS_P1;SDS_P2;PMS_P1;PMS_P2;Temp;Humidity;BMP_temperature;BMP_pressure;BME280_temperature;BME280_humidity;BME280_pressure;Samples;Min_cycle;Max_cycle;Signal;HPM_P1;HPM_P2
2022/11/21 00:00:57;;;;;;;37.38;21.70;;;6.30;99.90;;;;;;5013918;28;20033;-72
2022/11/21 00:03:23;;;;;;;36.10;21.30;;;6.30;99.90;;;;;;5013876;28;20440;-74
2022/11/21 00:05:49;;;;;;;35.50;20.60;;;6.30;99.90;;;;;;5020958;28;20214;-73
2022/11/21 00:08:20;;;;;;;38.13;21.77;;;6.30;99.90;;;;;;5014313;28;20026;-72
2022/11/21 00:10:46;;;;;;;38.10;20.30;;;6.30;99.90;;;;;;4999650;28;20029;-71
2022/11/21 00:13:15;;;;;;;36.67;20.45;;;6.30;99.90;;;;;;5011959;28;20096;-72
2022/11/21 00:15:41;;;;;;;35.88;21.33;;;6.30;99.90;;;;;;5002750;28;20114;-73
2022/11/21 00:18:07;;;;;;;34.25;20.27;;;6.20;99.90;;;;;;5012508;28;20492;-73
2022/11/21 00:20:35;;;;;;;39.08;20.85;;;6.20;99.90;;;;;;5013853;28;20025;-73
2022/11/21 00:23:01;;;;;;;36.20;21.88;;;6.20;99.90;;;;;;5013711;28;20124;-73
2022/11/21 00:25:27;;;;;;;36.50;21.67;;;6.20;99.90;;;;;;5003447;28;20103;-70
2022/11/21 00:27:53;;;;;;;42.65;23.88;;;6.20;99.90;;;;;;5013578;28;20057;-73
2022/11/21 00:30:19;;;;;;;36.92;22.45;;;6.20;99.90;;;;;;5002756;28;20030;-73
2022/11/21 00:32:45;;;;;;;39.08;23.52;;;6.20;99.90;;;;;;5008084;28;20033;-68
2022/11/21 00:35:11;;;;;;;37.92;21.48;;;6.20;99.90;;;;;;5013568;28;20018;-73
2022/11/21 00:37:37;;;;;;;38.40;22.92;;;6.20;99.90;;;;;;5008417;28;20068;-73
2022/11/21 00:40:03;;;;;;;36.22;21.73;;;6.20;99.90;;;;;;5009316;28;20054;-73
2022/11/21 00:42:29;;;;;;;36.30;21.85;;;6.10;99.90;;;;;;5012669;28;20120;-73
2022/11/21 00:44:55;;;;;;;35.45;21.92;;;6.20;99.90;;;;;;5013156;28;20109;-74
2022/11/21 00:47:21;;;;;;;38.78;22.40;;;6.10;99.90;;;;;;5009309;28;20019;-70
2022/11/21 00:49:47;;;;;;;40.75;23.65;;;6.10;99.90;;;;;;5003792;28;20041;-72
2022/11/21 00:52:12;;;;;;;39.20;23.73;;;6.10;99.90;;;;;;5013079;28;20029;-72
2022/11/21 00:54:38;;;;;;;43.00;25.20;;;6.10;99.90;;;;;;5013409;28;20025;-71
2022/11/21 00:57:04;;;;;;;37.75;22.40;;;6.10;99.90;;;;;;5013044;28;20284;-73
2022/11/21 00:59:30;;;;;;;44.05;24.98;;;6.20;99.90;;;;;;5013475;28;20037;-73
2022/11/21 01:01:56;;;;;;;39.53;24.70;;;6.20;99.90;;;;;;5013316;28;20021;-75
2022/11/21 01:04:21;;;;;;;43.30;24.98;;;6.10;99.90;;;;;;5004123;28;20497;-73
2022/11/21 01:06:47;;;;;;;44.20;24.33;;;6.20;99.90;;;;;;4995353;28;20073;-72
2022/11/21 01:09:13;;;;;;;43.88;22.98;;;6.10;99.90;;;;;;5013335;28;20026;-72
2022/11/21 01:11:39;;;;;;;46.65;28.00;;;6.10;99.90;;;;;;5013186;28;20362;-74
2022/11/21 01:14:05;;;;;;;44.67;26.67;;;6.10;99.90;;;;;;5012880;28;20037;-68
2022/11/21 01:16:31;;;;;;;46.20;25.35;;;6.20;99.90;;;;;;5013009;28;20515;-71
2022/11/21 01:18:57;;;;;;;44.10;26.02;;;6.20;99.90;;;;;;5012701;28;20285;-69
2022/11/21 01:21:26;;;;;;;42.58;24.58;;;6.20;99.90;;;;;;5013018;28;20480;-75
2022/11/21 01:23:53;;;;;;;39.15;24.75;;;6.20;99.90;;;;;;5012507;28;20087;-70
2022/11/21 01:26:22;;;;;;;45.97;26.38;;;6.10;99.90;;;;;;4999464;28;20025;-71
2022/11/21 01:28:48;;;;;;;43.55;26.48;;;6.20;99.90;;;;;;5012996;28;20088;-73
2022/11/21 01:31:20;;;;;;;45.28;26.08;;;6.20;99.90;;;;;;4995065;28;20025;-69
2022/11/21 01:33:47;;;;;;;44.00;27.05;;;6.20;99.90;;;;;;5012246;28;20101;-75
2022/11/21 01:36:16;;;;;;;46.35;25.95;;;6.20;99.90;;;;;;5012613;28;20611;-68
2022/11/21 01:38:45;;;;;;;46.75;27.17;;;6.20;99.90;;;;;;5012476;28;20061;-67
2022/11/21 01:41:12;;;;;;;43.03;25.13;;;6.20;99.90;;;;;;5000475;28;20036;-71
2022/11/21 01:43:38;;;;;;;42.13;25.75;;;6.20;99.90;;;;;;4994946;28;20096;-67
2022/11/21 01:46:06;;;;;;;43.63;23.48;;;6.20;99.90;;;;;;5012568;28;20026;-71
2022/11/21 01:48:44;;;;;;;44.13;26.23;;;6.20;99.90;;;;;;5011133;28;20083;-68
2022/11/21 01:51:53;;;;;;;41.28;23.98;;;6.20;99.90;;;;;;5010707;28;20030;-69
2022/11/21 01:54:35;;;;;;;39.03;24.23;;;6.20;99.90;;;;;;4930415;28;20450;-68
2022/11/21 01:57:06;;;;;;;40.57;24.33;;;6.20;99.90;;;;;;4931326;29;20042;-67
2022/11/21 01:59:42;;;;;;;42.13;25.48;;;6.20;99.90;;;;;;4932141;29;20736;-69
2022/11/21 02:02:13;;;;;;;43.28;25.23;;;6.20;99.90;;;;;;4932636;29;20031;-67
2022/11/21 02:04:41;;;;;;;46.42;25.65;;;6.20;99.90;;;;;;4931661;29;20139;-68
2022/11/21 02:07:09;;;;;;;40.92;24.65;;;6.20;99.90;;;;;;4932550;29;20167;-68
2022/11/21 02:09:38;;;;;;;43.30;24.65;;;6.20;99.90;;;;;;4931959;29;20047;-68
2022/11/21 02:12:09;;;;;;;44.10;24.90;;;6.20;99.90;;;;;;4932552;29;20039;-68
2022/11/21 02:14:37;;;;;;;41.40;25.48;;;6.20;99.90;;;;;;4932085;29;20127;-67
2022/11/21 02:17:06;;;;;;;40.00;23.10;;;6.20;99.90;;;;;;4932110;29;20052;-67
2022/11/21 02:19:48;;;;;;;41.38;24.80;;;6.20;99.90;;;;;;4932277;29;20108;-66
2022/11/21 02:22:35;;;;;;;46.47;25.50;;;6.20;99.90;;;;;;4931882;29;20074;-68
2022/11/21 02:25:01;;;;;;;42.15;25.05;;;6.20;99.90;;;;;;4932009;29;20050;-68
2022/11/21 02:27:27;;;;;;;40.25;25.70;;;6.20;99.90;;;;;;4931196;29;20043;-67
2022/11/21 02:29:53;;;;;;;44.35;26.65;;;6.10;99.90;;;;;;4951056;28;20046;-70
2022/11/21 02:32:21;;;;;;;39.25;23.52;;;6.10;99.90;;;;;;5011665;28;20014;-68
2022/11/21 02:34:47;;;;;;;41.80;25.10;;;6.10;99.90;;;;;;5011236;28;20041;-67
2022/11/21 02:37:13;;;;;;;42.25;24.95;;;6.10;99.90;;;;;;4994845;28;20467;-68
2022/11/21 02:39:40;;;;;;;43.55;25.45;;;6.10;99.90;;;;;;5007067;28;20025;-67
2022/11/21 02:42:15;;;;;;;37.88;23.20;;;6.10;99.90;;;;;;5012028;28;20032;-69
2022/11/21 02:44:54;;;;;;;44.15;26.38;;;6.20;99.90;;;;;;5011765;28;20029;-69
2022/11/21 02:47:22;;;;;;;44.80;25.02;;;6.10;99.90;;;;;;5012031;28;20548;-67
2022/11/21 02:50:01;;;;;;;43.03;25.40;;;6.10;99.90;;;;;;5011616;28;20018;-68
2022/11/21 02:52:26;;;;;;;45.80;26.35;;;6.10;99.90;;;;;;5011732;28;20026;-67
2022/11/21 02:54:52;;;;;;;43.35;26.55;;;6.20;99.90;;;;;;5011616;28;20096;-69
2022/11/21 02:57:18;;;;;;;47.03;27.13;;;6.10;99.90;;;;;;5011943;28;20040;-67
2022/11/21 02:59:44;;;;;;;39.40;24.65;;;6.10;99.90;;;;;;5011627;28;20026;-68
2022/11/21 03:02:10;;;;;;;42.67;25.27;;;6.10;99.90;;;;;;5012110;28;20030;-68
2022/11/21 03:04:36;;;;;;;46.78;26.38;;;6.10;99.90;;;;;;4995864;28;20026;-68
2022/11/21 03:07:01;;;;;;;43.28;25.65;;;6.10;99.90;;;;;;5015524;28;20460;-68
2022/11/21 03:09:27;;;;;;;42.88;24.25;;;6.10;99.90;;;;;;5015507;28;20022;-68
2022/11/21 03:11:53;;;;;;;43.53;25.17;;;6.10;99.90;;;;;;4997873;28;20440;-69
2022/11/21 03:14:19;;;;;;;43.53;26.98;;;6.20;99.90;;;;;;5011266;28;20026;-72
2022/11/21 03:16:44;;;;;;;40.40;24.27;;;6.10;99.90;;;;;;4994238;28;20030;-69
2022/11/21 03:19:10;;;;;;;46.35;26.00;;;6.10;99.90;;;;;;4994204;28;20097;-69
2022/11/21 03:21:36;;;;;;;42.55;25.40;;;6.10;99.90;;;;;;5000664;28;20030;-68
2022/11/21 03:24:02;;;;;;;42.38;25.40;;;6.10;99.90;;;;;;4994008;28;20100;-71
2022/11/21 03:26:28;;;;;;;43.35;25.27;;;6.20;99.90;;;;;;4998142;28;20038;-69
2022/11/21 03:28:54;;;;;;;47.50;26.48;;;6.20;99.90;;;;;;4994790;28;20505;-70
2022/11/21 03:31:20;;;;;;;43.25;26.60;;;6.20;99.90;;;;;;4995029;28;20113;-69
2022/11/21 03:33:45;;;;;;;46.05;26.20;;;6.20;99.90;;;;;;4996595;28;20033;-69
2022/11/21 03:36:11;;;;;;;38.40;23.92;;;6.20;99.90;;;;;;4992752;28;20034;-68
2022/11/21 03:38:37;;;;;;;46.92;27.33;;;6.10;99.90;;;;;;4995742;28;20045;-67
2022/11/21 03:41:28;;;;;;;40.97;24.23;;;6.20;99.90;;;;;;4992849;28;20109;-68
2022/11/21 03:43:52;;;;;;;47.92;25.55;;;6.20;99.90;;;;;;4992356;28;20049;-68
2022/11/21 03:46:18;;;;;;;41.63;25.30;;;6.20;99.90;;;;;;4992704;28;20027;-68
2022/11/21 03:48:44;;;;;;;48.00;26.88;;;6.20;99.90;;;;;;4992591;28;20025;-68
2022/11/21 03:51:09;;;;;;;42.22;24.70;;;6.20;99.90;;;;;;4992403;28;20446;-68
2022/11/21 03:53:35;;;;;;;47.15;27.33;;;6.20;99.90;;;;;;4992317;28;20105;-67
2022/11/21 03:56:01;;;;;;;43.92;25.85;;;6.20;99.90;;;;;;4994658;28;20042;-68
2022/11/21 03:58:27;;;;;;;44.50;25.05;;;6.10;99.90;;;;;;4997483;28;20038;-68
2022/11/21 04:00:53;;;;;;;47.83;27.58;;;6.10;99.90;;;;;;4992527;28;20348;-67
2022/11/21 04:03:18;;;;;;;44.17;25.35;;;6.10;99.90;;;;;;4996187;28;20050;-68
2022/11/21 04:05:44;;;;;;;41.22;24.92;;;6.10;99.90;;;;;;4992203;28;20531;-68
2022/11/21 04:08:10;;;;;;;40.97;24.30;;;6.20;99.90;;;;;;4992378;28;20535;-68
2022/11/21 04:10:36;;;;;;;44.72;25.92;;;6.20;99.90;;;;;;4992067;28;20483;-68
2022/11/21 04:13:01;;;;;;;43.25;25.98;;;6.20;99.90;;;;;;4994005;28;20181;-70
2022/11/21 04:15:27;;;;;;;42.60;25.45;;;6.20;99.90;;;;;;4991161;28;20014;-68
2022/11/21 04:17:53;;;;;;;41.78;24.90;;;6.10;99.90;;;;;;4991952;28;20030;-72
2022/11/21 04:20:19;;;;;;;43.75;26.23;;;6.20;99.90;;;;;;4991987;28;20465;-70
2022/11/21 04:22:45;;;;;;;40.17;25.42;;;6.20;99.90;;;;;;4992071;28;20030;-70
2022/11/21 04:25:12;;;;;;;44.97;27.45;;;6.10;99.90;;;;;;4992503;28;20026;-68
2022/11/21 04:27:38;;;;;;;39.22;25.10;;;6.10;99.90;;;;;;4949500;28;1237630;-68
2022/11/21 04:30:05;;;;;;;45.95;25.80;;;6.10;99.90;;;;;;4994614;28;20034;-67
2022/11/21 04:32:31;;;;;;;43.22;26.08;;;6.10;99.90;;;;;;5011508;28;20045;-69
2022/11/21 04:34:57;;;;;;;40.70;24.50;;;6.10;99.90;;;;;;5011896;28;20018;-68
2022/11/21 04:37:22;;;;;;;46.63;26.67;;;6.10;99.90;;;;;;5012098;28;20061;-68
2022/11/21 04:39:48;;;;;;;43.28;25.38;;;6.10;99.90;;;;;;5012253;28;20379;-68
2022/11/21 04:42:14;;;;;;;44.15;25.77;;;6.10;99.90;;;;;;4997790;28;20113;-70
2022/11/21 04:44:40;;;;;;;44.92;25.60;;;6.10;99.90;;;;;;4992732;28;20405;-68
2022/11/21 04:47:05;;;;;;;45.78;27.60;;;6.10;99.90;;;;;;4992680;28;20042;-69
2022/11/21 04:49:31;;;;;;;45.90;26.40;;;6.10;99.90;;;;;;4992007;28;20381;-68
2022/11/21 04:51:57;;;;;;;46.10;28.17;;;6.10;99.90;;;;;;4992803;28;20377;-68
2022/11/21 04:54:23;;;;;;;45.63;26.92;;;6.10;99.90;;;;;;4992797;28;20027;-68
2022/11/21 04:56:48;;;;;;;43.25;25.50;;;6.10;99.90;;;;;;4996299;28;20030;-68
2022/11/21 04:59:14;;;;;;;42.15;25.95;;;6.10;99.90;;;;;;4992133;28;20428;-68
2022/11/21 05:01:40;;;;;;;51.42;27.33;;;6.10;99.90;;;;;;4992282;28;20477;-68
2022/11/21 05:04:06;;;;;;;46.50;27.15;;;6.20;99.90;;;;;;4992120;28;20023;-68
2022/11/21 05:06:32;;;;;;;43.55;25.75;;;6.10;99.90;;;;;;4991846;28;20489;-67
2022/11/21 05:08:57;;;;;;;42.17;24.90;;;6.10;99.90;;;;;;4991703;28;20090;-68
2022/11/21 05:14:08;;;;;;;41.65;25.67;;;6.00;99.90;;;;;;4991602;28;20035;-68
2022/11/21 05:16:34;;;;;;;44.20;26.73;;;6.10;99.90;;;;;;4991929;28;20033;-70
2022/11/21 05:19:00;;;;;;;47.10;27.38;;;6.10;99.90;;;;;;4991556;28;20030;-69
2022/11/21 05:21:26;;;;;;;47.58;27.40;;;6.00;99.90;;;;;;4994094;28;20026;-73
2022/11/21 05:23:51;;;;;;;46.05;26.60;;;6.10;99.90;;;;;;4991779;28;20066;-70
2022/11/21 05:26:17;;;;;;;43.22;27.40;;;6.00;99.90;;;;;;4991342;28;20029;-69
2022/11/21 05:28:43;;;;;;;54.00;27.90;;;6.00;99.90;;;;;;4991567;28;20489;-68
2022/11/21 05:31:09;;;;;;;47.50;27.20;;;6.00;99.90;;;;;;4992569;28;20065;-68
2022/11/21 05:33:35;;;;;;;43.15;26.50;;;6.00;99.90;;;;;;4991793;28;20369;-70
2022/11/21 05:36:00;;;;;;;42.38;28.08;;;6.00;99.90;;;;;;4991189;28;20113;-67
2022/11/21 05:38:26;;;;;;;47.22;28.55;;;6.10;99.90;;;;;;4993319;28;20046;-68
2022/11/21 05:40:52;;;;;;;46.47;27.10;;;6.10;99.90;;;;;;4991386;28;20378;-68
2022/11/21 05:46:02;;;;;;;46.00;28.45;;;6.10;99.90;;;;;;4991273;28;20072;-68
2022/11/21 05:48:28;;;;;;;45.53;27.92;;;6.00;99.90;;;;;;4991195;28;20080;-67
2022/11/21 05:50:54;;;;;;;45.45;27.63;;;6.00;99.90;;;;;;4990830;28;20014;-68
2022/11/21 05:53:20;;;;;;;44.15;27.35;;;6.00;99.90;;;;;;4991020;28;20437;-68
2022/11/21 05:55:46;;;;;;;46.85;28.33;;;6.00;99.90;;;;;;4991299;28;20105;-68
2022/11/21 05:58:12;;;;;;;43.25;27.77;;;6.00;99.90;;;;;;4990792;28;20404;-68
2022/11/21 06:00:38;;;;;;;46.92;27.20;;;6.00;99.90;;;;;;4990694;28;20030;-68
2022/11/21 06:05:49;;;;;;;41.63;27.15;;;6.00;99.90;;;;;;4990760;28;20022;-68
2022/11/21 06:08:16;;;;;;;45.42;26.98;;;6.00;99.90;;;;;;4990822;28;20030;-68
2022/11/21 06:10:42;;;;;;;43.47;27.77;;;6.00;99.90;;;;;;4990958;28;20033;-68
2022/11/21 06:13:23;;;;;;;47.28;27.05;;;6.00;99.90;;;;;;4990950;28;20026;-68
2022/11/21 06:15:59;;;;;;;46.50;27.52;;;6.00;99.90;;;;;;4990545;28;20045;-69
2022/11/21 06:18:25;;;;;;;46.20;30.15;;;6.00;99.90;;;;;;4990777;28;20038;-69
2022/11/21 06:20:51;;;;;;;44.33;26.90;;;6.00;99.90;;;;;;4990844;28;20050;-70
2022/11/21 06:23:17;;;;;;;46.90;27.92;;;6.10;99.90;;;;;;4990943;28;20030;-69
2022/11/21 06:25:43;;;;;;;49.40;28.48;;;6.10;99.90;;;;;;4990988;28;20077;-71
2022/11/21 06:28:10;;;;;;;48.50;29.20;;;6.10;99.90;;;;;;4990557;28;20563;-68
2022/11/21 06:30:37;;;;;;;46.85;29.40;;;6.10;99.90;;;;;;4991707;28;20106;-68
2022/11/21 06:33:05;;;;;;;47.17;28.95;;;6.10;99.90;;;;;;4992461;28;20038;-70
2022/11/21 06:35:31;;;;;;;45.35;29.92;;;6.10;99.90;;;;;;5011458;28;20384;-69
2022/11/21 06:37:57;;;;;;;42.78;27.10;;;6.10;99.90;;;;;;5011662;28;20381;-68
2022/11/21 06:40:24;;;;;;;38.35;25.55;;;6.20;99.90;;;;;;5014399;28;20033;-69
2022/11/21 06:42:49;;;;;;;39.25;23.95;;;6.20;99.90;;;;;;5015788;28;20080;-69
2022/11/21 06:45:15;;;;;;;41.63;25.02;;;6.20;99.90;;;;;;5015320;28;20030;-69
2022/11/21 06:47:41;;;;;;;44.25;27.38;;;6.20;99.90;;;;;;5015503;28;20022;-68
2022/11/21 06:50:07;;;;;;;43.80;27.13;;;6.30;99.90;;;;;;5015004;28;20080;-69
2022/11/21 06:52:34;;;;;;;42.65;25.10;;;6.30;99.90;;;;;;5015651;28;20034;-69
2022/11/21 06:55:00;;;;;;;43.22;27.83;;;6.30;99.90;;;;;;5015271;28;20105;-71
2022/11/21 06:57:26;;;;;;;42.38;24.35;;;6.30;99.90;;;;;;5003871;28;20091;-69
2022/11/21 06:59:52;;;;;;;42.55;26.88;;;6.30;99.90;;;;;;5006974;28;20120;-69
2022/11/21 07:02:17;;;;;;;44.95;26.33;;;6.30;99.90;;;;;;5014255;28;20026;-70
2022/11/21 07:04:43;;;;;;;42.45;26.83;;;6.30;99.90;;;;;;5014807;28;20041;-69
2022/11/21 07:07:09;;;;;;;41.03;26.88;;;6.40;99.90;;;;;;5013887;28;20025;-69
2022/11/21 07:09:35;;;;;;;41.20;25.60;;;6.40;99.90;;;;;;4996350;28;20041;-70
2022/11/21 07:14:46;;;;;;;40.28;24.63;;;6.40;99.90;;;;;;5011296;28;20072;-70
2022/11/21 07:17:12;;;;;;;42.80;25.80;;;6.40;99.90;;;;;;5014608;28;20037;-69
2022/11/21 07:19:38;;;;;;;39.72;26.17;;;6.40;99.90;;;;;;5014506;28;20033;-70
2022/11/21 07:22:04;;;;;;;37.83;25.48;;;6.50;99.90;;;;;;5014731;28;20149;-68
2022/11/21 07:24:30;;;;;;;43.85;27.58;;;6.50;99.90;;;;;;5014239;28;20057;-70
2022/11/21 07:26:56;;;;;;;48.20;28.85;;;6.60;99.90;;;;;;5014441;28;20128;-69
2022/11/21 07:29:22;;;;;;;46.55;29.10;;;6.60;99.90;;;;;;5014002;28;20042;-69
2022/11/21 07:31:47;;;;;;;47.75;27.80;;;6.60;99.90;;;;;;5013589;28;20017;-69
2022/11/21 07:34:13;;;;;;;40.60;24.90;;;6.70;99.90;;;;;;5013979;28;20044;-69
2022/11/21 07:36:39;;;;;;;47.17;26.17;;;6.70;99.90;;;;;;5005325;28;20038;-70
2022/11/21 07:39:05;;;;;;;42.10;24.50;;;6.70;99.90;;;;;;5014127;28;20042;-69
2022/11/21 07:41:31;;;;;;;40.17;24.38;;;6.70;99.90;;;;;;5014440;28;20014;-70
2022/11/21 07:43:57;;;;;;;41.35;25.27;;;6.80;99.90;;;;;;5014747;28;20094;-69
2022/11/21 07:46:23;;;;;;;39.63;23.40;;;6.80;99.90;;;;;;5003404;28;20420;-69
2022/11/21 07:48:49;;;;;;;38.95;25.92;;;6.80;99.90;;;;;;4999619;28;20033;-70
2022/11/21 07:51:15;;;;;;;40.08;23.38;;;6.80;99.90;;;;;;5014134;28;20108;-69
2022/11/21 07:53:41;;;;;;;36.50;22.77;;;6.80;99.90;;;;;;5014155;28;20065;-70
2022/11/21 07:56:09;;;;;;;36.40;22.20;;;6.80;99.90;;;;;;5013597;28;20033;-70
2022/11/21 07:58:35;;;;;;;34.00;21.27;;;6.90;99.90;;;;;;5013765;28;20463;-70
2022/11/21 08:01:05;;;;;;;34.67;21.85;;;6.90;99.90;;;;;;5012307;28;20022;-73
2022/11/21 08:03:34;;;;;;;32.33;19.38;;;6.80;99.90;;;;;;5013576;28;20080;-70
2022/11/21 08:06:05;;;;;;;33.60;21.70;;;6.90;99.90;;;;;;5012730;28;20022;-73
2022/11/21 08:08:31;;;;;;;35.03;22.00;;;7.00;99.90;;;;;;4977806;28;20046;-70
2022/11/21 08:10:57;;;;;;;32.35;21.50;;;7.10;99.90;;;;;;5009553;28;20029;-69
2022/11/21 08:13:23;;;;;;;32.67;20.80;;;7.10;99.90;;;;;;5004736;28;20108;-71
2022/11/21 08:15:49;;;;;;;32.88;21.33;;;7.10;99.90;;;;;;5013217;28;20472;-68
2022/11/21 08:18:19;;;;;;;34.22;21.35;;;7.20;99.90;;;;;;5013257;28;20511;-69
2022/11/21 08:20:45;;;;;;;32.88;21.45;;;7.20;99.90;;;;;;5012561;28;20476;-68
2022/11/21 08:23:11;;;;;;;33.45;20.77;;;7.30;99.90;;;;;;5012613;28;20065;-68
2022/11/21 08:25:39;;;;;;;36.80;21.95;;;7.30;99.90;;;;;;5004970;28;20385;-69
2022/11/21 08:28:07;;;;;;;34.83;21.45;;;7.50;99.90;;;;;;5013048;28;20058;-67
2022/11/21 08:30:34;;;;;;;31.65;19.70;;;7.50;99.90;;;;;;5012466;28;20034;-69
2022/11/21 08:33:00;;;;;;;28.17;19.20;;;7.50;99.90;;;;;;5012277;28;20036;-68
2022/11/21 08:35:27;;;;;;;30.50;18.83;;;7.50;99.90;;;;;;5012035;28;20380;-68
2022/11/21 08:38:00;;;;;;;29.40;19.63;;;7.60;99.90;;;;;;5012210;28;20038;-68
2022/11/21 08:40:28;;;;;;;31.98;20.45;;;7.50;99.90;;;;;;4994792;28;20392;-69
2022/11/21 08:42:57;;;;;;;32.13;19.83;;;7.60;99.90;;;;;;5012754;28;20036;-68
2022/11/21 08:45:24;;;;;;;33.60;21.52;;;7.60;99.90;;;;;;4995101;28;20041;-68
2022/11/21 08:47:50;;;;;;;35.22;20.65;;;7.70;99.90;;;;;;5012348;28;20058;-72
2022/11/21 08:50:16;;;;;;;28.85;18.45;;;7.80;99.90;;;;;;5012795;28;20033;-73
2022/11/21 08:52:42;;;;;;;30.05;17.75;;;7.90;99.90;;;;;;5012316;28;20022;-68
2022/11/21 08:55:08;;;;;;;29.45;20.02;;;7.90;99.90;;;;;;5004075;28;20076;-68
2022/11/21 08:57:41;;;;;;;33.17;18.80;;;8.00;99.90;;;;;;5012538;28;20040;-69
2022/11/21 09:00:13;;;;;;;26.42;16.98;;;8.10;99.90;;;;;;4994892;28;20488;-74
2022/11/21 09:02:39;;;;;;;27.20;17.35;;;8.10;99.90;;;;;;5012741;28;20105;-68
2022/11/21 09:05:05;;;;;;;26.98;18.45;;;8.20;99.90;;;;;;5012987;28;20333;-68
2022/11/21 09:07:31;;;;;;;27.20;18.80;;;8.10;99.90;;;;;;5012891;28;20068;-69
2022/11/21 09:09:56;;;;;;;31.60;21.02;;;8.10;99.90;;;;;;5012909;28;20526;-68
2022/11/21 09:12:22;;;;;;;36.80;18.13;;;8.20;99.90;;;;;;5012688;28;20061;-67
2022/11/21 09:20:17;;;;;;;29.33;17.77;;;8.10;99.90;;;;;;4999740;28;20421;-71
2022/11/21 09:22:43;;;;;;;26.92;18.20;;;8.00;99.90;;;;;;5004094;28;20049;-69
2022/11/21 09:25:09;;;;;;;28.08;18.13;;;7.90;99.90;;;;;;4992408;28;20026;-74
2022/11/21 09:27:34;;;;;;;32.35;18.33;;;7.90;99.90;;;;;;4992284;28;20101;-74
2022/11/21 09:30:00;;;;;;;27.60;17.30;;;7.90;99.90;;;;;;5008389;28;20428;-70
2022/11/21 09:32:26;;;;;;;32.53;20.23;;;7.90;99.90;;;;;;5009400;28;20018;-69
2022/11/21 09:34:52;;;;;;;29.13;17.77;;;7.90;99.90;;;;;;4993079;28;20029;-68
2022/11/21 09:37:17;;;;;;;28.58;18.98;;;7.90;99.90;;;;;;5011199;28;20033;-68
2022/11/21 09:39:43;;;;;;;29.20;17.65;;;7.90;99.90;;;;;;4994137;28;20033;-68
2022/11/21 09:42:38;;;;;;;28.10;16.80;;;8.00;99.90;;;;;;5006308;28;20061;-68
2022/11/21 09:45:13;;;;;;;32.45;18.88;;;8.00;99.90;;;;;;5009714;28;20022;-67
2022/11/21 09:47:44;;;;;;;30.27;20.30;;;8.10;99.90;;;;;;4993554;28;20045;-68
2022/11/21 09:50:13;;;;;;;30.45;17.60;;;8.20;99.90;;;;;;5011230;28;20428;-68
2022/11/21 09:52:51;;;;;;;28.13;16.70;;;8.30;99.90;;;;;;5011019;28;20022;-67
2022/11/21 09:55:34;;;;;;;37.60;24.30;;;8.30;99.90;;;;;;5011585;28;20120;-67
2022/11/21 09:58:10;;;;;;;26.48;16.35;;;8.30;99.90;;;;;;5011046;28;20037;-68
2022/11/21 10:00:36;;;;;;;26.42;15.55;;;8.20;99.90;;;;;;5010839;28;20052;-68
2022/11/21 10:03:02;;;;;;;27.67;16.23;;;8.10;99.90;;;;;;5010613;28;20473;-70
2022/11/21 10:05:48;;;;;;;25.10;16.35;;;8.10;99.90;;;;;;5010953;28;20092;-73
2022/11/21 10:08:39;;;;;;;28.73;18.85;;;8.10;99.90;;;;;;4996812;28;20439;-69
2022/11/21 10:11:11;;;;;;;30.38;18.85;;;8.20;99.90;;;;;;5011021;28;20040;-71
2022/11/21 10:14:02;;;;;;;30.40;19.42;;;8.20;99.90;;;;;;5009667;28;20034;-70
2022/11/21 10:16:59;;;;;;;28.98;16.13;;;8.20;99.90;;;;;;5007373;28;20058;-68
2022/11/21 10:19:35;;;;;;;27.20;17.23;;;8.30;99.90;;;;;;4991389;28;20074;-68
2022/11/21 10:22:27;;;;;;;28.33;16.30;;;8.10;99.90;;;;;;5005923;28;20037;-71
2022/11/21 10:25:10;;;;;;;30.40;19.50;;;8.10;99.90;;;;;;4997580;28;20552;-70
2022/11/21 10:27:42;;;;;;;31.13;19.45;;;8.10;99.90;;;;;;4990643;28;20047;-67
2022/11/21 10:30:16;;;;;;;33.20;20.63;;;8.00;99.90;;;;;;4999225;28;20026;-73
2022/11/21 10:33:03;;;;;;;41.17;29.20;;;8.10;99.90;;;;;;4989624;28;20108;-68
2022/11/21 10:35:38;;;;;;;32.40;21.45;;;8.20;99.90;;;;;;4992544;28;20022;-70
2022/11/21 10:38:19;;;;;;;33.85;22.38;;;8.10;99.90;;;;;;4998380;28;20042;-69
2022/11/21 10:40:54;;;;;;;36.58;23.75;;;8.20;99.90;;;;;;4991461;28;20030;-70
2022/11/21 10:46:10;;;;;;;34.25;19.70;;;8.30;99.90;;;;;;4991529;28;20499;-67
2022/11/21 10:48:36;;;;;;;35.85;25.33;;;8.40;99.90;;;;;;5006208;28;20061;-69
2022/11/21 10:51:33;;;;;;;35.15;22.30;;;8.40;99.90;;;;;;5000918;28;20030;-68
2022/11/21 10:56:51;;;;;;;27.80;18.40;;;8.70;99.90;;;;;;5002723;28;20070;-69
2022/11/21 10:59:24;;;;;;;23.90;13.63;;;8.70;99.90;;;;;;5009354;28;20038;-69
2022/11/21 11:01:56;;;;;;;20.83;11.43;;;8.70;99.90;;;;;;5009971;28;20022;-69
2022/11/21 11:04:22;;;;;;;21.98;11.02;;;8.50;99.90;;;;;;4992247;28;20042;-69
2022/11/21 11:06:48;;;;;;;20.27;10.50;;;8.50;99.90;;;;;;5010012;28;20041;-70
2022/11/21 11:09:30;;;;;;;19.50;9.48;;;8.40;99.90;;;;;;5009536;28;20033;-70
2022/11/21 11:15:23;;;;;;;19.85;10.15;;;8.30;99.90;;;;;;4975027;28;20101;-69
2022/11/21 11:17:58;;;;;;;17.38;10.23;;;8.30;99.90;;;;;;4957070;28;20425;-69
2022/11/21 11:20:39;;;;;;;20.15;11.13;;;8.40;99.90;;;;;;4958175;28;20042;-69
2022/11/21 11:23:26;;;;;;;18.77;11.00;;;8.40;99.90;;;;;;4968540;28;20564;-69
2022/11/21 11:25:54;;;;;;;17.98;10.52;;;8.40;99.90;;;;;;4957906;28;20035;-70
2022/11/21 11:28:20;;;;;;;15.43;9.93;;;8.30;99.90;;;;;;4970755;28;20059;-70
2022/11/21 11:30:48;;;;;;;19.13;11.00;;;8.40;99.90;;;;;;4970380;28;20113;-69
2022/11/21 11:33:36;;;;;;;19.50;11.98;;;8.40;99.90;;;;;;4964030;28;20043;-68
2022/11/21 11:36:13;;;;;;;21.65;11.88;;;8.40;99.90;;;;;;4971191;28;20047;-69
2022/11/21 11:38:42;;;;;;;16.38;9.68;;;8.40;99.90;;;;;;4970872;28;20058;-67
2022/11/21 11:41:24;;;;;;;15.77;8.88;;;8.40;99.90;;;;;;4966608;28;20636;-68
2022/11/21 11:50:12;;;;;;;18.90;10.80;;;8.40;99.90;;;;;;4958551;28;20114;-71
2022/11/21 11:53:02;;;;;;;20.42;12.00;;;8.30;99.90;;;;;;4989179;28;20457;-73
2022/11/21 11:55:35;;;;;;;21.98;13.27;;;8.40;99.90;;;;;;5012425;28;20037;-67
2022/11/21 11:58:05;;;;;;;21.08;13.00;;;8.40;99.90;;;;;;5011657;28;20042;-68
2022/11/21 12:01:12;;;;;;;20.63;12.20;;;8.40;99.90;;;;;;5011798;28;20431;-68
2022/11/21 12:03:44;;;;;;;19.75;11.23;;;8.50;99.90;;;;;;4925233;29;20094;-68
2022/11/21 12:06:20;;;;;;;21.70;11.95;;;8.60;99.90;;;;;;4915761;29;20043;-67
2022/11/21 12:08:48;;;;;;;21.65;11.93;;;8.60;99.90;;;;;;4922321;29;20032;-68
2022/11/21 12:17:16;;;;;;;21.13;12.75;;;8.60;99.90;;;;;;4927292;29;20040;-68
2022/11/21 12:19:42;;;;;;;23.58;14.95;;;8.60;99.90;;;;;;4931843;29;20498;-72
2022/11/21 12:22:10;;;;;;;22.90;12.48;;;8.60;99.90;;;;;;4927789;29;20553;-69
2022/11/21 12:24:36;;;;;;;21.23;11.65;;;8.60;99.90;;;;;;4927040;29;20047;-68
2022/11/21 12:27:14;;;;;;;17.98;10.13;;;8.50;99.90;;;;;;4928965;29;20569;-68
2022/11/21 12:29:57;;;;;;;18.98;10.77;;;8.50;99.90;;;;;;4931009;29;20044;-70
2022/11/21 12:32:26;;;;;;;20.58;10.88;;;8.50;99.90;;;;;;4904765;29;20027;-67
2022/11/21 12:35:01;;;;;;;19.77;11.15;;;8.50;99.90;;;;;;4930666;29;20118;-72
2022/11/21 12:37:41;;;;;;;22.38;13.02;;;8.40;99.90;;;;;;4964904;28;20068;-68
2022/11/21 12:40:38;;;;;;;21.45;13.55;;;8.50;99.90;;;;;;4994627;28;20488;-72
2022/11/21 12:43:19;;;;;;;27.00;14.65;;;8.50;99.90;;;;;;4999982;28;20053;-69
2022/11/21 12:46:37;;;;;;;22.83;14.35;;;8.50;99.90;;;;;;5005199;28;20056;-75
2022/11/21 12:55:16;;;;;;;27.33;15.65;;;8.70;99.90;;;;;;4944987;29;20039;-69
2022/11/21 12:58:05;;;;;;;21.63;13.88;;;8.60;99.90;;;;;;4946602;28;20039;-70
2022/11/21 13:00:46;;;;;;;23.67;13.30;;;8.60;99.90;;;;;;4950533;28;20120;-71
2022/11/21 13:03:38;;;;;;;21.13;13.68;;;8.60;99.90;;;;;;4951280;28;20527;-71
2022/11/21 13:06:11;;;;;;;21.92;13.60;;;8.60;99.90;;;;;;4950961;28;20109;-70
2022/11/21 13:08:38;;;;;;;26.77;16.27;;;8.50;99.90;;;;;;4951169;28;20059;-70
2022/11/21 13:14:17;;;;;;;25.67;15.23;;;8.60;99.90;;;;;;4934692;29;20038;-70
2022/11/21 13:16:50;;;;;;;22.45;13.75;;;8.70;99.90;;;;;;4950703;28;20411;-71
2022/11/21 13:19:15;;;;;;;;;;;8.60;99.90;;;;;;4950457;28;20074;-71
2022/11/21 13:21:44;;;;;;;21.38;13.68;;;8.50;99.90;;;;;;4950746;28;19999;-70
2022/11/21 13:24:10;;;;;;;24.63;14.27;;;8.60;99.90;;;;;;5008199;28;20176;-70
2022/11/21 13:26:36;;;;;;;28.10;13.32;;;8.60;99.90;;;;;;5011597;28;20381;-70
2022/11/21 13:29:10;;;;;;;26.63;16.02;;;8.60;99.90;;;;;;5011525;28;20044;-70
2022/11/21 13:31:36;;;;;;;22.40;13.23;;;8.50;99.90;;;;;;4993984;28;20041;-70
2022/11/21 13:34:03;;;;;;;22.13;13.45;;;8.60;99.90;;;;;;5011357;28;20026;-71
2022/11/21 13:36:30;;;;;;;20.50;12.00;;;8.60;99.90;;;;;;4993998;28;20038;-70